createdAt,value
2017-10-30T00:00:25.791Z,0
2017-10-30T00:01:25.452Z,0
2017-10-30T00:02:25.763Z,0
2017-10-30T00:03:25.749Z,0
2017-10-30T00:04:25.744Z,0
2017-10-30T00:05:25.724Z,0
2017-10-30T00:06:25.397Z,0
2017-10-30T00:07:25.703Z,0
2017-10-30T00:08:25.690Z,0
2017-10-30T00:09:25.674Z,0
2017-10-30T00:10:25.338Z,0
2017-10-30T00:11:25.651Z,0
2017-10-30T00:12:25.652Z,0
2017-10-30T00:13:25.302Z,0
2017-10-30T00:14:25.612Z,0
2017-10-30T00:15:25.597Z,0
2017-10-30T00:16:25.589Z,0
2017-10-30T00:17:25.572Z,0
2017-10-30T00:18:24.914Z,0
2017-10-30T00:19:25.223Z,0
2017-10-30T00:20:25.574Z,0
2017-10-30T00:21:25.517Z,0
2017-10-30T00:22:25.187Z,0
2017-10-30T00:23:25.174Z,0
2017-10-30T00:24:25.165Z,0
2017-10-30T00:25:24.820Z,0
2017-10-30T00:26:25.459Z,0
2017-10-30T00:27:25.442Z,0
2017-10-30T00:28:25.433Z,0
2017-10-30T00:29:25.418Z,0
2017-10-30T00:30:25.083Z,0
2017-10-30T00:31:25.390Z,0
2017-10-30T00:32:25.383Z,0
2017-10-30T00:33:25.364Z,0
2017-10-30T00:34:25.358Z,0
2017-10-30T00:35:25.336Z,0
2017-10-30T00:36:25.330Z,0
2017-10-30T00:37:25.310Z,0
2017-10-30T00:38:24.974Z,0
2017-10-30T00:39:24.971Z,0
2017-10-30T00:40:24.950Z,0
2017-10-30T00:41:24.936Z,0
2017-10-30T00:42:25.248Z,0
2017-10-30T00:43:24.910Z,0
2017-10-30T00:44:25.226Z,0
2017-10-30T00:45:25.215Z,0
2017-10-30T00:46:25.201Z,0
2017-10-30T00:47:25.188Z,0
2017-10-30T00:48:25.177Z,0
2017-10-30T00:49:25.166Z,0
2017-10-30T00:50:25.144Z,0
2017-10-30T00:51:25.130Z,0
2017-10-30T00:52:24.800Z,0
2017-10-30T00:53:25.109Z,0
2017-10-30T00:54:25.109Z,0
2017-10-30T00:55:24.755Z,0
2017-10-30T00:56:25.066Z,0
2017-10-30T00:57:25.058Z,0
2017-10-30T00:58:25.062Z,0
2017-10-30T00:59:25.030Z,0
2017-10-30T01:00:24.704Z,0
2017-10-30T01:01:25.005Z,0
2017-10-30T01:02:25.003Z,0
2017-10-30T01:03:24.974Z,0
2017-10-30T01:04:24.963Z,0
2017-10-30T01:05:24.952Z,0
2017-10-30T01:06:24.941Z,0
2017-10-30T01:07:24.921Z,0
2017-10-30T01:08:24.914Z,0
2017-10-30T01:09:24.895Z,0
2017-10-30T01:10:24.899Z,0
2017-10-30T01:11:24.878Z,0
2017-10-30T01:12:24.862Z,0
2017-10-30T01:13:24.854Z,0
2017-10-30T01:14:24.510Z,0
2017-10-30T01:15:24.825Z,0
2017-10-30T01:16:24.821Z,0
2017-10-30T01:17:24.825Z,0
2017-10-30T01:18:24.777Z,0
2017-10-30T01:19:24.770Z,0
2017-10-30T01:20:24.437Z,0
2017-10-30T01:21:24.743Z,0
2017-10-30T01:22:24.412Z,0
2017-10-30T01:23:24.398Z,0
2017-10-30T01:24:24.703Z,0
2017-10-30T01:25:24.367Z,0
2017-10-30T01:26:24.677Z,0
2017-10-30T01:27:24.670Z,0
2017-10-30T01:28:24.662Z,0
2017-10-30T01:29:24.642Z,0
2017-10-30T01:30:24.640Z,0
2017-10-30T01:31:24.642Z,0
2017-10-30T01:32:24.600Z,0
2017-10-30T01:33:24.592Z,0
2017-10-30T01:34:24.252Z,0
2017-10-30T01:35:24.570Z,0
2017-10-30T01:36:24.230Z,0
2017-10-30T01:37:24.539Z,0
2017-10-30T01:38:24.521Z,0
2017-10-30T01:39:24.510Z,0
2017-10-30T01:40:24.169Z,0
2017-10-30T01:41:24.158Z,0
2017-10-30T01:42:24.497Z,0
2017-10-30T01:43:24.134Z,0
2017-10-30T01:44:24.448Z,0
2017-10-30T01:45:24.439Z,0
2017-10-30T01:46:24.102Z,0
2017-10-30T01:47:24.415Z,0
2017-10-30T01:48:24.081Z,0
2017-10-30T01:49:23.730Z,0
2017-10-30T01:50:24.372Z,0
2017-10-30T01:51:24.361Z,0
2017-10-30T01:52:24.343Z,0
2017-10-30T01:53:23.679Z,0
2017-10-30T01:54:23.990Z,0
2017-10-30T01:55:23.982Z,0
2017-10-30T01:56:23.962Z,0
2017-10-30T01:57:23.953Z,0
2017-10-30T01:58:23.623Z,0
2017-10-30T01:59:23.925Z,0
2017-10-30T02:00:23.913Z,0
2017-10-30T02:01:24.223Z,0
2017-10-30T02:02:24.204Z,0
2017-10-30T02:03:24.198Z,0
2017-10-30T02:04:24.198Z,0
2017-10-30T02:05:24.171Z,0
2017-10-30T02:06:24.153Z,0
2017-10-30T02:07:24.144Z,0
2017-10-30T02:08:24.145Z,0
2017-10-30T02:09:24.116Z,0
2017-10-30T02:10:23.478Z,0
2017-10-30T02:11:23.772Z,0
2017-10-30T02:12:23.763Z,0
2017-10-30T02:13:24.069Z,0
2017-10-30T02:14:23.736Z,0
2017-10-30T02:15:24.041Z,0
2017-10-30T02:16:24.027Z,0
2017-10-30T02:17:24.020Z,0
2017-10-30T02:18:24.009Z,0
2017-10-30T02:19:23.992Z,0
2017-10-30T02:20:23.974Z,0
2017-10-30T02:21:23.989Z,0
2017-10-30T02:22:23.621Z,0
2017-10-30T02:23:23.938Z,0
2017-10-30T02:24:23.612Z,0
2017-10-30T02:25:23.905Z,0
2017-10-30T02:26:23.897Z,0
2017-10-30T02:27:23.563Z,0
2017-10-30T02:28:23.876Z,0
2017-10-30T02:29:23.533Z,0
2017-10-30T02:30:23.867Z,0
2017-10-30T02:31:23.521Z,0
2017-10-30T02:32:23.816Z,0
2017-10-30T02:33:24.154Z,0
2017-10-30T02:34:23.794Z,0
2017-10-30T02:35:23.465Z,0
2017-10-30T02:36:23.770Z,0
2017-10-30T02:37:23.101Z,0
2017-10-30T02:38:23.738Z,0
2017-10-30T02:39:23.733Z,0
2017-10-30T02:40:23.712Z,0
2017-10-30T02:41:23.702Z,0
2017-10-30T02:42:23.681Z,0
2017-10-30T02:43:23.353Z,0
2017-10-30T02:44:23.347Z,0
2017-10-30T02:45:23.338Z,0
2017-10-30T02:46:22.989Z,0
2017-10-30T02:47:23.637Z,0
2017-10-30T02:48:23.285Z,0
2017-10-30T02:49:23.280Z,0
2017-10-30T02:50:23.260Z,0
2017-10-30T02:51:23.568Z,0
2017-10-30T02:52:23.556Z,0
2017-10-30T02:53:23.245Z,0
2017-10-30T02:54:22.881Z,0
2017-10-30T02:55:23.197Z,0
2017-10-30T02:56:23.503Z,0
2017-10-30T02:57:23.168Z,0
2017-10-30T02:58:23.479Z,0
2017-10-30T02:59:23.466Z,0
2017-10-30T03:00:23.449Z,0
2017-10-30T03:01:22.790Z,0
2017-10-30T03:02:22.784Z,0
2017-10-30T03:03:23.414Z,0
2017-10-30T03:04:23.073Z,0
2017-10-30T03:05:23.066Z,0
2017-10-30T03:06:23.377Z,4
2017-10-30T03:07:23.033Z,4
2017-10-30T03:08:23.344Z,4
2017-10-30T03:09:23.340Z,4
2017-10-30T03:10:23.318Z,4
2017-10-30T03:11:23.342Z,4
2017-10-30T03:12:23.297Z,0
2017-10-30T03:13:23.291Z,0
2017-10-30T03:14:22.943Z,0
2017-10-30T03:15:22.929Z,0
2017-10-30T03:16:22.607Z,0
2017-10-30T03:17:23.231Z,0
2017-10-30T03:18:23.208Z,0
2017-10-30T03:19:23.211Z,0
2017-10-30T03:20:23.189Z,0
2017-10-30T03:21:23.198Z,0
2017-10-30T03:22:23.158Z,0
2017-10-30T03:23:23.149Z,0
2017-10-30T03:24:23.131Z,0
2017-10-30T03:25:23.123Z,0
2017-10-30T03:26:23.141Z,0
2017-10-30T03:27:23.095Z,0
2017-10-30T03:28:23.084Z,0
2017-10-30T03:29:22.742Z,0
2017-10-30T03:30:23.071Z,0
2017-10-30T03:31:23.057Z,0
2017-10-30T03:32:23.041Z,0
2017-10-30T03:33:23.014Z,0
2017-10-30T03:34:23.012Z,0
2017-10-30T03:35:22.985Z,0
2017-10-30T03:36:22.650Z,0
2017-10-30T03:37:22.964Z,0
2017-10-30T03:38:22.947Z,0
2017-10-30T03:39:22.616Z,0
2017-10-30T03:40:22.932Z,0
2017-10-30T03:41:22.907Z,0
2017-10-30T03:42:22.571Z,0
2017-10-30T03:43:22.884Z,0
2017-10-30T03:44:22.875Z,0
2017-10-30T03:45:22.857Z,0
2017-10-30T03:46:22.851Z,0
2017-10-30T03:47:22.504Z,0
2017-10-30T03:48:22.171Z,0
2017-10-30T03:49:22.476Z,0
2017-10-30T03:50:22.465Z,0
2017-10-30T03:51:22.787Z,0
2017-10-30T03:52:22.770Z,0
2017-10-30T03:53:22.747Z,0
2017-10-30T03:54:22.737Z,0
2017-10-30T03:55:22.398Z,0
2017-10-30T03:56:22.710Z,0
2017-10-30T03:57:22.374Z,0
2017-10-30T03:58:22.685Z,0
2017-10-30T03:59:22.673Z,0
2017-10-30T04:00:22.659Z,0
2017-10-30T04:01:22.650Z,0
2017-10-30T04:02:22.630Z,0
2017-10-30T04:03:22.636Z,0
2017-10-30T04:04:22.277Z,0
2017-10-30T04:05:22.596Z,0
2017-10-30T04:06:21.927Z,0
2017-10-30T04:07:22.566Z,0
2017-10-30T04:08:22.556Z,0
2017-10-30T04:09:22.541Z,0
2017-10-30T04:10:22.518Z,0
2017-10-30T04:11:21.884Z,0
2017-10-30T04:12:22.511Z,0
2017-10-30T04:13:22.161Z,0
2017-10-30T04:14:22.482Z,0
2017-10-30T04:15:22.460Z,0
2017-10-30T04:16:22.452Z,0
2017-10-30T04:17:22.435Z,0
2017-10-30T04:18:22.414Z,0
2017-10-30T04:19:22.414Z,0
2017-10-30T04:20:21.750Z,0
2017-10-30T04:21:22.387Z,0
2017-10-30T04:22:22.368Z,0
2017-10-30T04:23:22.376Z,0
2017-10-30T04:24:22.359Z,0
2017-10-30T04:25:22.329Z,0
2017-10-30T04:26:21.998Z,0
2017-10-30T04:27:22.310Z,0
2017-10-30T04:28:22.295Z,0
2017-10-30T04:29:22.280Z,0
2017-10-30T04:30:22.263Z,0
2017-10-30T04:31:22.248Z,0
2017-10-30T04:32:21.916Z,0
2017-10-30T04:33:22.226Z,0
2017-10-30T04:34:22.553Z,0
2017-10-30T04:35:22.199Z,0
2017-10-30T04:36:21.863Z,0
2017-10-30T04:37:22.191Z,0
2017-10-30T04:38:22.165Z,0
2017-10-30T04:39:22.153Z,0
2017-10-30T04:40:22.151Z,0
2017-10-30T04:41:22.123Z,0
2017-10-30T04:42:22.104Z,0
2017-10-30T04:43:22.112Z,0
2017-10-30T04:44:22.078Z,0
2017-10-30T04:45:22.076Z,0
2017-10-30T04:46:22.060Z,0
2017-10-30T04:47:22.051Z,0
2017-10-30T04:48:22.023Z,0
2017-10-30T04:49:21.047Z,0
2017-10-30T04:50:22.001Z,0
2017-10-30T04:51:21.993Z,0
2017-10-30T04:52:21.972Z,0
2017-10-30T04:53:21.974Z,0
2017-10-30T04:54:21.953Z,0
2017-10-30T04:55:21.620Z,0
2017-10-30T04:56:21.966Z,0
2017-10-30T04:57:21.587Z,0
2017-10-30T04:58:21.577Z,0
2017-10-30T04:59:21.559Z,0
2017-10-30T05:00:21.872Z,0
2017-10-30T05:01:21.857Z,0
2017-10-30T05:02:21.855Z,0
2017-10-30T05:03:21.843Z,0
2017-10-30T05:04:21.828Z,0
2017-10-30T05:05:21.820Z,0
2017-10-30T05:06:21.799Z,0
2017-10-30T05:07:21.789Z,0
2017-10-30T05:08:21.447Z,0
2017-10-30T05:09:21.765Z,0
2017-10-30T05:10:21.760Z,0
2017-10-30T05:11:21.733Z,0
2017-10-30T05:12:21.076Z,0
2017-10-30T05:13:21.708Z,0
2017-10-30T05:14:21.693Z,0
2017-10-30T05:15:21.686Z,0
2017-10-30T05:16:21.349Z,0
2017-10-30T05:17:21.667Z,0
2017-10-30T05:18:21.643Z,0
2017-10-30T05:19:21.632Z,0
2017-10-30T05:20:21.620Z,4
2017-10-30T05:21:21.612Z,4
2017-10-30T05:22:21.275Z,4
2017-10-30T05:23:21.584Z,0
2017-10-30T05:24:21.254Z,4
2017-10-30T05:25:21.551Z,4
2017-10-30T05:26:21.550Z,4
2017-10-30T05:27:21.530Z,8
2017-10-30T05:28:21.522Z,8
2017-10-30T05:29:21.556Z,8
2017-10-30T05:30:21.494Z,8
2017-10-30T05:31:21.151Z,8
2017-10-30T05:32:21.470Z,12
2017-10-30T05:33:21.454Z,12
2017-10-30T05:34:21.442Z,16
2017-10-30T05:35:21.430Z,20
2017-10-30T05:36:21.419Z,24
2017-10-30T05:37:21.425Z,32
2017-10-30T05:38:21.401Z,32
2017-10-30T05:39:21.051Z,40
2017-10-30T05:40:21.379Z,48
2017-10-30T05:41:21.359Z,56
2017-10-30T05:42:21.336Z,64
2017-10-30T05:43:21.341Z,80
2017-10-30T05:44:21.317Z,88
2017-10-30T05:45:21.305Z,100
2017-10-30T05:46:21.293Z,116
2017-10-30T05:47:21.282Z,132
2017-10-30T05:48:21.287Z,148
2017-10-30T05:49:20.924Z,168
2017-10-30T05:50:20.586Z,188
2017-10-30T05:51:21.226Z,212
2017-10-30T05:52:21.206Z,236
2017-10-30T05:53:20.882Z,264
2017-10-30T05:54:21.181Z,288
2017-10-30T05:55:21.167Z,316
2017-10-30T05:56:21.165Z,348
2017-10-30T05:57:21.164Z,380
2017-10-30T05:58:21.130Z,416
2017-10-30T05:59:20.795Z,448
2017-10-30T06:00:20.790Z,484
2017-10-30T06:01:21.092Z,524
2017-10-30T06:02:21.088Z,560
2017-10-30T06:03:20.741Z,604
2017-10-30T06:04:20.408Z,648
2017-10-30T06:05:21.044Z,692
2017-10-30T06:06:21.027Z,736
2017-10-30T06:07:21.016Z,784
2017-10-30T06:08:21.007Z,828
2017-10-30T06:09:20.985Z,880
2017-10-30T06:10:20.974Z,928
2017-10-30T06:11:20.978Z,980
2017-10-30T06:12:20.948Z,1032
2017-10-30T06:13:20.617Z,1080
2017-10-30T06:14:20.602Z,1132
2017-10-30T06:15:20.918Z,1188
2017-10-30T06:16:20.902Z,1236
2017-10-30T06:17:20.888Z,1292
2017-10-30T06:18:20.867Z,1344
2017-10-30T06:19:20.539Z,1404
2017-10-30T06:20:20.525Z,1456
2017-10-30T06:21:20.834Z,1512
2017-10-30T06:22:20.828Z,1568
2017-10-30T06:23:20.828Z,1624
2017-10-30T06:24:20.795Z,1684
2017-10-30T06:25:20.788Z,1736
2017-10-30T06:26:20.776Z,1796
2017-10-30T06:27:20.760Z,1856
2017-10-30T06:28:20.744Z,1932
2017-10-30T06:29:20.733Z,2072
2017-10-30T06:30:20.735Z,2240
2017-10-30T06:31:20.390Z,2392
2017-10-30T06:32:20.703Z,2500
2017-10-30T06:33:20.677Z,2580
2017-10-30T06:34:20.347Z,2676
2017-10-30T06:35:20.344Z,2712
2017-10-30T06:36:20.649Z,2860
2017-10-30T06:37:20.631Z,2936
2017-10-30T06:38:20.297Z,3040
2017-10-30T06:39:20.615Z,3132
2017-10-30T06:40:20.595Z,3176
2017-10-30T06:41:20.591Z,3180
2017-10-30T06:42:20.602Z,3192
2017-10-30T06:43:20.554Z,3448
2017-10-30T06:44:20.483Z,3516
2017-10-30T06:45:20.545Z,3652
2017-10-30T06:46:20.208Z,3500
2017-10-30T06:47:20.510Z,3592
2017-10-30T06:48:20.502Z,3344
2017-10-30T06:49:20.162Z,3592
2017-10-30T06:50:20.481Z,4068
2017-10-30T06:51:19.814Z,4352
2017-10-30T06:52:20.451Z,4400
2017-10-30T06:53:20.449Z,4380
2017-10-30T06:54:20.431Z,4520
2017-10-30T06:55:20.419Z,4508
2017-10-30T06:56:20.412Z,4464
2017-10-30T06:57:20.404Z,4492
2017-10-30T06:58:20.400Z,4632
2017-10-30T06:59:20.373Z,4720
2017-10-30T07:00:20.049Z,5016
2017-10-30T07:01:20.359Z,5044
2017-10-30T07:02:20.345Z,5328
2017-10-30T07:03:20.333Z,5480
2017-10-30T07:04:20.326Z,5548
2017-10-30T07:05:20.305Z,5648
2017-10-30T07:06:20.323Z,5728
2017-10-30T07:07:20.285Z,5836
2017-10-30T07:08:20.273Z,5620
2017-10-30T07:09:20.259Z,6004
2017-10-30T07:10:20.268Z,6160
2017-10-30T07:11:20.241Z,6380
2017-10-30T07:12:19.914Z,6440
2017-10-30T07:13:20.222Z,6136
2017-10-30T07:14:20.210Z,6800
2017-10-30T07:15:19.880Z,6768
2017-10-30T07:16:20.189Z,6560
2017-10-30T07:17:19.534Z,5364
2017-10-30T07:18:19.850Z,4052
2017-10-30T07:19:20.162Z,3772
2017-10-30T07:20:20.149Z,3752
2017-10-30T07:21:20.136Z,3756
2017-10-30T07:22:19.806Z,3768
2017-10-30T07:23:19.796Z,3780
2017-10-30T07:24:19.461Z,3784
2017-10-30T07:25:20.100Z,3792
2017-10-30T07:26:20.081Z,3800
2017-10-30T07:27:20.075Z,3804
2017-10-30T07:28:20.065Z,3820
2017-10-30T07:29:20.059Z,3832
2017-10-30T07:30:20.053Z,3848
2017-10-30T07:31:19.728Z,3864
2017-10-30T07:32:20.026Z,3876
2017-10-30T07:33:20.031Z,3884
2017-10-30T07:34:20.004Z,3900
2017-10-30T07:35:20.002Z,3908
2017-10-30T07:36:19.992Z,3908
2017-10-30T07:37:19.648Z,3912
2017-10-30T07:38:19.978Z,3924
2017-10-30T07:39:19.624Z,3936
2017-10-30T07:40:19.936Z,3928
2017-10-30T07:41:19.609Z,3920
2017-10-30T07:42:19.912Z,3920
2017-10-30T07:43:19.912Z,3928
2017-10-30T07:44:19.587Z,3936
2017-10-30T07:45:19.890Z,3940
2017-10-30T07:46:19.871Z,3952
2017-10-30T07:47:19.872Z,3960
2017-10-30T07:48:19.859Z,3968
2017-10-30T07:49:19.516Z,3976
2017-10-30T07:50:19.830Z,3976
2017-10-30T07:51:19.170Z,3976
2017-10-30T07:52:19.803Z,3980
2017-10-30T07:53:19.796Z,3992
2017-10-30T07:54:19.453Z,4004
2017-10-30T07:55:19.773Z,4024
2017-10-30T07:56:19.432Z,4036
2017-10-30T07:57:19.798Z,4048
2017-10-30T07:58:19.734Z,4068
2017-10-30T07:59:19.725Z,4088
2017-10-30T08:00:19.709Z,4104
2017-10-30T08:01:19.702Z,4128
2017-10-30T08:02:19.705Z,4148
2017-10-30T08:03:19.683Z,4152
2017-10-30T08:04:19.672Z,4120
2017-10-30T08:05:19.656Z,4092
2017-10-30T08:06:19.649Z,4088
2017-10-30T08:07:19.634Z,4076
2017-10-30T08:08:19.304Z,4072
2017-10-30T08:09:19.613Z,4072
2017-10-30T08:10:19.281Z,4080
2017-10-30T08:11:19.595Z,4072
2017-10-30T08:12:19.581Z,4056
2017-10-30T08:13:19.574Z,4028
2017-10-30T08:14:19.558Z,4012
2017-10-30T08:15:19.562Z,4008
2017-10-30T08:16:19.555Z,4004
2017-10-30T08:17:19.561Z,3996
2017-10-30T08:18:19.517Z,3988
2017-10-30T08:19:19.510Z,3992
2017-10-30T08:20:19.504Z,3984
2017-10-30T08:21:19.482Z,3956
2017-10-30T08:22:19.151Z,3960
2017-10-30T08:23:19.470Z,3960
2017-10-30T08:24:19.455Z,3968
2017-10-30T08:25:19.437Z,3972
2017-10-30T08:26:19.431Z,3972
2017-10-30T08:27:19.422Z,3976
2017-10-30T08:28:19.083Z,3972
2017-10-30T08:29:19.400Z,3960
2017-10-30T08:30:19.384Z,3960
2017-10-30T08:31:19.398Z,3964
2017-10-30T08:32:19.374Z,3972
2017-10-30T08:33:19.396Z,3960
2017-10-30T08:34:19.340Z,3956
2017-10-30T08:35:18.689Z,3964
2017-10-30T08:36:18.996Z,3956
2017-10-30T08:37:19.310Z,3960
2017-10-30T08:38:18.976Z,3916
2017-10-30T08:39:19.293Z,3924
2017-10-30T08:40:19.280Z,3928
2017-10-30T08:41:19.265Z,3916
2017-10-30T08:42:18.938Z,3888
2017-10-30T08:43:19.243Z,3896
2017-10-30T08:44:19.239Z,3908
2017-10-30T08:45:19.276Z,3908
2017-10-30T08:46:18.899Z,3896
2017-10-30T08:47:19.203Z,3880
2017-10-30T08:48:19.192Z,3868
2017-10-30T08:49:19.180Z,3872
2017-10-30T08:50:19.173Z,3884
2017-10-30T08:51:19.167Z,3888
2017-10-30T08:52:18.825Z,3888
2017-10-30T08:53:18.818Z,3880
2017-10-30T08:54:19.131Z,3880
2017-10-30T08:55:18.795Z,3876
2017-10-30T08:56:19.110Z,3872
2017-10-30T08:57:19.097Z,3848
2017-10-30T08:58:19.087Z,3860
2017-10-30T08:59:19.078Z,3868
2017-10-30T09:00:19.066Z,3868
2017-10-30T09:01:19.069Z,3880
2017-10-30T09:02:18.431Z,3880
2017-10-30T09:03:19.039Z,3868
2017-10-30T09:04:19.025Z,3860
2017-10-30T09:05:19.013Z,3848
2017-10-30T09:06:19.013Z,3868
2017-10-30T09:07:18.995Z,3868
2017-10-30T09:08:18.989Z,3868
2017-10-30T09:09:18.971Z,3864
2017-10-30T09:10:19.283Z,3868
2017-10-30T09:11:18.962Z,3868
2017-10-30T09:12:18.945Z,3860
2017-10-30T09:13:18.287Z,3852
2017-10-30T09:14:18.599Z,3836
2017-10-30T09:15:18.910Z,3840
2017-10-30T09:16:18.580Z,3844
2017-10-30T09:17:18.893Z,3856
2017-10-30T09:18:18.879Z,3864
2017-10-30T09:19:18.883Z,3860
2017-10-30T09:20:18.537Z,3860
2017-10-30T09:21:18.847Z,3852
2017-10-30T09:22:18.839Z,3868
2017-10-30T09:23:18.828Z,3880
2017-10-30T09:24:18.824Z,3888
2017-10-30T09:25:18.499Z,3884
2017-10-30T09:26:18.799Z,3884
2017-10-30T09:27:18.463Z,3876
2017-10-30T09:28:18.459Z,3864
2017-10-30T09:29:18.449Z,3860
2017-10-30T09:30:18.766Z,3848
2017-10-30T09:31:18.744Z,3844
2017-10-30T09:32:18.758Z,3836
2017-10-30T09:33:18.726Z,3836
2017-10-30T09:34:18.716Z,3836
2017-10-30T09:35:18.388Z,3840
2017-10-30T09:36:18.712Z,3848
2017-10-30T09:37:18.690Z,3848
2017-10-30T09:38:18.699Z,3856
2017-10-30T09:39:18.665Z,3860
2017-10-30T09:40:18.655Z,3860
2017-10-30T09:41:18.646Z,3856
2017-10-30T09:42:18.645Z,3856
2017-10-30T09:43:18.620Z,3848
2017-10-30T09:44:18.616Z,3856
2017-10-30T09:45:18.609Z,3884
2017-10-30T09:46:18.592Z,3980
2017-10-30T09:47:18.264Z,4036
2017-10-30T09:48:18.580Z,4036
2017-10-30T09:49:18.564Z,3944
2017-10-30T09:50:18.225Z,3876
2017-10-30T09:51:18.551Z,3864
2017-10-30T09:52:18.532Z,3864
2017-10-30T09:53:18.521Z,3864
2017-10-30T09:54:18.520Z,3864
2017-10-30T09:55:18.506Z,3856
2017-10-30T09:56:18.169Z,3860
2017-10-30T09:57:18.484Z,3868
2017-10-30T09:58:18.148Z,3868
2017-10-30T09:59:18.469Z,3868
2017-10-30T10:00:18.456Z,3868
2017-10-30T10:01:18.448Z,3872
2017-10-30T10:02:18.434Z,3876
2017-10-30T10:03:18.425Z,3884
2017-10-30T10:04:18.412Z,3892
2017-10-30T10:05:18.419Z,3896
2017-10-30T10:06:18.392Z,3900
2017-10-30T10:07:18.384Z,3908
2017-10-30T10:08:18.384Z,3904
2017-10-30T10:09:18.041Z,3892
2017-10-30T10:10:18.042Z,3872
2017-10-30T10:11:18.345Z,3872
2017-10-30T10:12:18.355Z,3880
2017-10-30T10:13:17.678Z,3876
2017-10-30T10:14:18.314Z,3852
2017-10-30T10:15:18.324Z,3836
2017-10-30T10:16:18.294Z,3828
2017-10-30T10:17:18.280Z,3828
2017-10-30T10:18:18.282Z,3824
2017-10-30T10:19:17.940Z,3824
2017-10-30T10:20:17.930Z,3820
2017-10-30T10:21:18.246Z,3816
2017-10-30T10:22:18.234Z,3820
2017-10-30T10:23:17.900Z,3808
2017-10-30T10:24:18.230Z,3816
2017-10-30T10:25:18.204Z,3856
2017-10-30T10:26:18.198Z,3844
2017-10-30T10:27:17.868Z,3812
2017-10-30T10:28:18.183Z,3792
2017-10-30T10:29:17.846Z,3800
2017-10-30T10:30:18.155Z,3816
2017-10-30T10:31:18.151Z,3844
2017-10-30T10:32:18.167Z,3860
2017-10-30T10:33:17.814Z,3892
2017-10-30T10:34:18.115Z,3920
2017-10-30T10:35:18.124Z,3936
2017-10-30T10:36:17.775Z,3832
2017-10-30T10:37:18.101Z,3808
2017-10-30T10:38:17.441Z,3800
2017-10-30T10:39:18.074Z,3792
2017-10-30T10:40:18.072Z,3800
2017-10-30T10:41:18.063Z,3836
2017-10-30T10:42:18.042Z,3896
2017-10-30T10:43:17.707Z,3904
2017-10-30T10:44:18.042Z,3840
2017-10-30T10:45:18.015Z,3816
2017-10-30T10:46:17.357Z,3816
2017-10-30T10:47:18.002Z,3808
2017-10-30T10:48:17.658Z,3804
2017-10-30T10:49:17.969Z,3804
2017-10-30T10:50:17.962Z,3800
2017-10-30T10:51:17.969Z,3788
2017-10-30T10:52:17.945Z,3784
2017-10-30T10:53:17.931Z,3792
2017-10-30T10:54:17.930Z,3788
2017-10-30T10:55:17.924Z,3792
2017-10-30T10:56:17.262Z,3784
2017-10-30T10:57:17.896Z,3780
2017-10-30T10:58:17.898Z,3776
2017-10-30T10:59:17.556Z,3776
2017-10-30T11:00:17.876Z,3776
2017-10-30T11:01:17.874Z,3788
2017-10-30T11:02:17.859Z,3840
2017-10-30T11:03:17.839Z,3892
2017-10-30T11:04:17.827Z,3932
2017-10-30T11:05:17.175Z,3968
2017-10-30T11:06:17.488Z,3952
2017-10-30T11:07:17.483Z,3972
2017-10-30T11:08:17.803Z,4040
2017-10-30T11:09:17.782Z,4296
2017-10-30T11:10:17.458Z,4820
2017-10-30T11:11:17.775Z,5120
2017-10-30T11:12:17.114Z,5564
2017-10-30T11:13:17.418Z,5508
2017-10-30T11:14:17.738Z,4944
2017-10-30T11:15:17.080Z,4888
2017-10-30T11:16:17.714Z,5004
2017-10-30T11:17:17.733Z,4604
2017-10-30T11:18:17.384Z,4392
2017-10-30T11:19:17.688Z,4396
2017-10-30T11:20:17.354Z,4620
2017-10-30T11:21:17.669Z,4788
2017-10-30T11:22:17.668Z,4672
2017-10-30T11:23:17.653Z,4516
2017-10-30T11:24:17.641Z,4756
2017-10-30T11:25:17.633Z,5740
2017-10-30T11:26:17.637Z,6864
2017-10-30T11:27:17.288Z,7224
2017-10-30T11:28:17.606Z,6980
2017-10-30T11:29:17.605Z,6096
2017-10-30T11:30:17.588Z,5628
2017-10-30T11:31:17.575Z,4848
2017-10-30T11:32:17.594Z,4464
2017-10-30T11:33:17.557Z,4308
2017-10-30T11:34:17.549Z,4544
2017-10-30T11:35:17.217Z,4016
2017-10-30T11:36:16.891Z,3820
2017-10-30T11:37:17.521Z,4156
2017-10-30T11:38:17.545Z,4348
2017-10-30T11:39:17.505Z,3980
2017-10-30T11:40:17.499Z,3984
2017-10-30T11:41:17.168Z,3856
2017-10-30T11:42:17.159Z,3852
2017-10-30T11:43:17.473Z,3840
2017-10-30T11:44:17.468Z,3808
2017-10-30T11:45:17.463Z,3896
2017-10-30T11:46:17.446Z,3960
2017-10-30T11:47:17.434Z,4000
2017-10-30T11:48:17.102Z,3956
2017-10-30T11:49:17.093Z,3892
2017-10-30T11:50:17.411Z,3880
2017-10-30T11:51:17.073Z,3884
2017-10-30T11:52:17.397Z,3896
2017-10-30T11:53:17.379Z,3884
2017-10-30T11:54:17.051Z,3872
2017-10-30T11:55:17.367Z,3876
2017-10-30T11:56:17.354Z,3724
2017-10-30T11:57:17.339Z,3992
2017-10-30T11:58:17.347Z,4028
2017-10-30T11:59:17.325Z,4192
2017-10-30T12:00:16.996Z,4076
2017-10-30T12:01:17.307Z,4312
2017-10-30T12:02:17.302Z,4308
2017-10-30T12:03:17.293Z,4216
2017-10-30T12:04:16.957Z,4208
2017-10-30T12:05:17.273Z,4336
2017-10-30T12:06:16.933Z,4288
2017-10-30T12:07:17.262Z,4704
2017-10-30T12:08:16.920Z,4876
2017-10-30T12:09:17.229Z,4648
2017-10-30T12:10:17.228Z,4700
2017-10-30T12:11:17.212Z,4804
2017-10-30T12:12:17.211Z,4632
2017-10-30T12:13:17.193Z,4688
2017-10-30T12:14:17.185Z,4752
2017-10-30T12:15:17.173Z,4856
2017-10-30T12:16:17.198Z,5268
2017-10-30T12:17:17.158Z,5812
2017-10-30T12:18:17.149Z,5536
2017-10-30T12:19:17.148Z,5380
2017-10-30T12:20:17.129Z,4936
2017-10-30T12:21:16.798Z,4892
2017-10-30T12:22:17.130Z,5028
2017-10-30T12:23:16.799Z,5128
2017-10-30T12:24:16.773Z,5148
2017-10-30T12:25:17.090Z,5104
2017-10-30T12:26:16.752Z,4648
2017-10-30T12:27:17.076Z,4356
2017-10-30T12:28:17.059Z,4004
2017-10-30T12:29:17.077Z,3712
2017-10-30T12:30:17.042Z,3912
2017-10-30T12:31:17.054Z,4248
2017-10-30T12:32:16.701Z,4692
2017-10-30T12:33:16.700Z,5680
2017-10-30T12:34:17.004Z,6636
2017-10-30T12:35:16.676Z,7116
2017-10-30T12:36:16.338Z,6400
2017-10-30T12:37:16.990Z,6152
2017-10-30T12:38:16.965Z,6076
2017-10-30T12:39:16.634Z,5452
2017-10-30T12:40:16.952Z,5044
2017-10-30T12:41:16.944Z,4516
2017-10-30T12:42:16.610Z,4244
2017-10-30T12:43:16.597Z,4280
2017-10-30T12:44:16.916Z,4356
2017-10-30T12:45:16.592Z,4512
2017-10-30T12:46:16.893Z,4908
2017-10-30T12:47:16.892Z,5664
2017-10-30T12:48:16.885Z,6084
2017-10-30T12:49:16.864Z,5944
2017-10-30T12:50:16.534Z,6088
2017-10-30T12:51:16.851Z,6592
2017-10-30T12:52:16.515Z,7100
2017-10-30T12:53:16.832Z,7544
2017-10-30T12:54:16.505Z,7696
2017-10-30T12:55:16.814Z,7860
2017-10-30T12:56:16.806Z,8068
2017-10-30T12:57:16.801Z,8184
2017-10-30T12:58:16.784Z,8988
2017-10-30T12:59:16.773Z,8600
2017-10-30T13:00:16.775Z,7720
2017-10-30T13:01:16.771Z,7300
2017-10-30T13:02:16.757Z,6904
2017-10-30T13:03:16.762Z,6104
2017-10-30T13:04:16.754Z,5248
2017-10-30T13:05:16.722Z,4564
2017-10-30T13:06:16.721Z,4120
2017-10-30T13:07:16.062Z,3980
2017-10-30T13:08:16.692Z,3988
2017-10-30T13:09:16.695Z,4068
2017-10-30T13:10:16.688Z,4412
2017-10-30T13:11:16.669Z,4788
2017-10-30T13:12:16.664Z,5092
2017-10-30T13:13:16.657Z,5036
2017-10-30T13:14:16.320Z,4756
2017-10-30T13:15:16.312Z,4424
2017-10-30T13:16:16.626Z,4236
2017-10-30T13:17:16.619Z,4100
2017-10-30T13:18:16.284Z,3852
2017-10-30T13:19:16.613Z,3576
2017-10-30T13:20:16.588Z,3380
2017-10-30T13:21:16.582Z,3296
2017-10-30T13:22:16.570Z,3320
2017-10-30T13:23:16.568Z,3408
2017-10-30T13:24:16.548Z,3708
2017-10-30T13:25:16.544Z,3308
2017-10-30T13:26:16.540Z,3260
2017-10-30T13:27:16.199Z,3252
2017-10-30T13:28:16.526Z,3332
2017-10-30T13:29:16.523Z,3364
2017-10-30T13:30:16.492Z,3428
2017-10-30T13:31:16.166Z,3772
2017-10-30T13:32:15.832Z,4000
2017-10-30T13:33:16.468Z,3576
2017-10-30T13:34:16.456Z,3500
2017-10-30T13:35:16.466Z,4380
2017-10-30T13:36:16.447Z,5172
2017-10-30T13:37:16.437Z,4248
2017-10-30T13:38:15.773Z,4080
2017-10-30T13:39:16.085Z,4008
2017-10-30T13:40:16.396Z,4424
2017-10-30T13:41:16.392Z,4772
2017-10-30T13:42:16.061Z,5004
2017-10-30T13:43:16.370Z,5584
2017-10-30T13:44:16.047Z,6152
2017-10-30T13:45:16.024Z,5296
2017-10-30T13:46:16.347Z,4728
2017-10-30T13:47:16.007Z,4548
2017-10-30T13:48:16.339Z,4320
2017-10-30T13:49:16.311Z,4156
2017-10-30T13:50:16.300Z,3916
2017-10-30T13:51:15.966Z,3880
2017-10-30T13:52:15.957Z,3800
2017-10-30T13:53:15.952Z,3432